Time;durP1;ratioP1;P1;durP2;ratioP2;P2;SDS_P1;SDS_P2;PMS_P1;PMS_P2;Temp;Humidity;BMP_temperature;BMP_pressure;BME280_temperature;BME280_humidity;BME280_pressure;Samples;Min_cycle;Max_cycle;Signal;HPM_P1;HPM_P2
2022/11/14 00:00:23;;;;;;;66.32;37.90;;;5.70;99.90;;;;;;4991764;28;20050;-76
2022/11/14 00:02:50;;;;;;;65.82;37.28;;;5.60;99.90;;;;;;4971119;28;20145;-77
2022/11/14 00:05:16;;;;;;;63.03;36.33;;;5.70;99.90;;;;;;4961000;28;20089;-77
2022/11/14 00:07:42;;;;;;;62.85;37.28;;;5.70;99.90;;;;;;4994017;28;20404;-77
2022/11/14 00:10:08;;;;;;;65.85;37.05;;;5.70;99.90;;;;;;4994099;28;20038;-77
2022/11/14 00:12:33;;;;;;;62.85;36.97;;;5.70;99.90;;;;;;4993902;28;20041;-77
2022/11/14 00:14:59;;;;;;;61.35;35.63;;;5.70;99.90;;;;;;4961163;28;20073;-77
2022/11/14 00:17:25;;;;;;;62.40;35.33;;;5.80;99.90;;;;;;4980700;28;20054;-77
2022/11/14 00:19:50;;;;;;;60.72;35.53;;;5.80;99.90;;;;;;4993857;28;20046;-77
2022/11/14 00:22:16;;;;;;;57.25;33.83;;;5.80;99.90;;;;;;4994143;28;20481;-76
2022/11/14 00:24:41;;;;;;;61.03;34.80;;;5.80;99.90;;;;;;4954469;28;20046;-77
2022/11/14 00:27:07;;;;;;;63.75;35.42;;;5.80;99.90;;;;;;4992669;28;20116;-77
2022/11/14 00:29:33;;;;;;;60.55;34.13;;;5.80;99.90;;;;;;4959881;28;20038;-77
2022/11/14 00:31:58;;;;;;;57.85;34.75;;;5.90;99.90;;;;;;4961174;28;20492;-77
2022/11/14 00:34:24;;;;;;;59.85;36.20;;;6.00;99.90;;;;;;4960475;28;20038;-77
2022/11/14 00:36:49;;;;;;;56.50;34.97;;;5.90;99.90;;;;;;4993401;28;20034;-77
2022/11/14 00:39:15;;;;;;;59.17;35.42;;;6.00;99.90;;;;;;4993314;28;20038;-77
2022/11/14 00:41:41;;;;;;;60.63;34.42;;;6.00;99.90;;;;;;4960608;28;20037;-77
2022/11/14 00:44:07;;;;;;;63.85;36.42;;;6.00;99.90;;;;;;4973944;28;20030;-77
2022/11/14 00:46:34;;;;;;;61.38;34.92;;;6.00;99.90;;;;;;4955995;28;20066;-77
2022/11/14 00:49:00;;;;;;;60.70;35.10;;;6.00;99.90;;;;;;4984260;28;20124;-77
2022/11/14 00:51:25;;;;;;;61.92;36.75;;;6.00;99.90;;;;;;4992493;28;20468;-77
2022/11/14 00:53:51;;;;;;;58.47;35.92;;;6.10;99.90;;;;;;4972782;28;20057;-77
2022/11/14 00:56:17;;;;;;;59.58;36.67;;;6.10;99.90;;;;;;4958462;28;20060;-77
2022/11/14 00:58:42;;;;;;;59.90;37.78;;;6.10;99.90;;;;;;4976737;28;20097;-77
2022/11/14 01:01:08;;;;;;;60.20;36.47;;;6.10;99.90;;;;;;4977167;28;20116;-77
2022/11/14 01:03:34;;;;;;;59.78;36.65;;;6.10;99.90;;;;;;4954036;28;20034;-77
2022/11/14 01:06:07;;;;;;;63.40;38.88;;;6.10;99.90;;;;;;4987218;28;20044;-77
2022/11/14 01:08:33;;;;;;;66.55;38.97;;;6.10;99.90;;;;;;4958340;28;20045;-77
2022/11/14 01:10:59;;;;;;;63.80;39.03;;;6.10;99.90;;;;;;4960755;28;20117;-77
2022/11/14 01:13:25;;;;;;;66.32;40.20;;;6.10;99.90;;;;;;4973713;28;20088;-77
2022/11/14 01:15:51;;;;;;;67.32;41.28;;;6.10;99.90;;;;;;4954858;28;20030;-77
2022/11/14 01:18:19;;;;;;;63.53;39.45;;;6.10;99.90;;;;;;4958583;28;20133;-77
2022/11/14 01:20:46;;;;;;;65.93;41.15;;;6.10;99.90;;;;;;4959147;28;20045;-77
2022/11/14 01:23:14;;;;;;;67.70;40.03;;;6.10;99.90;;;;;;4972019;28;20050;-77
2022/11/14 01:25:40;;;;;;;64.68;39.45;;;6.10;99.90;;;;;;4956276;28;20030;-77
2022/11/14 01:28:08;;;;;;;62.50;40.10;;;6.10;99.90;;;;;;4959302;28;20084;-77
2022/11/14 01:30:34;;;;;;;68.90;42.80;;;6.10;99.90;;;;;;4991759;28;20121;-77
2022/11/14 01:32:59;;;;;;;66.45;41.58;;;6.10;99.90;;;;;;4952549;28;20118;-77
2022/11/14 01:35:25;;;;;;;69.40;41.42;;;6.10;99.90;;;;;;4955592;28;20089;-77
2022/11/14 01:37:50;;;;;;;65.90;41.35;;;6.10;99.90;;;;;;4940851;28;20051;-77
2022/11/14 01:40:16;;;;;;;67.43;41.33;;;6.10;99.90;;;;;;4956675;28;20038;-77
2022/11/14 01:42:42;;;;;;;68.30;42.08;;;6.00;99.90;;;;;;4956600;28;20046;-77
2022/11/14 01:45:41;;;;;;;66.00;41.92;;;6.00;99.90;;;;;;4954973;28;20053;-77
2022/11/14 01:48:40;;;;;;;69.00;41.67;;;5.90;99.90;;;;;;4984040;28;20158;-77
2022/11/14 01:51:22;;;;;;;71.10;43.65;;;5.90;99.90;;;;;;4955982;28;20515;-77
2022/11/14 01:53:50;;;;;;;66.10;41.95;;;5.90;99.90;;;;;;4985407;28;20034;-77
2022/11/14 01:56:20;;;;;;;70.32;44.25;;;5.80;99.90;;;;;;4991098;28;20038;-77
2022/11/14 01:58:52;;;;;;;72.35;42.55;;;5.80;99.90;;;;;;4991846;28;20035;-77
2022/11/14 02:01:18;;;;;;;68.88;42.88;;;5.70;99.90;;;;;;4990144;28;20042;-77
2022/11/14 02:03:47;;;;;;;73.63;44.45;;;5.70;99.90;;;;;;4951666;28;20134;-77
2022/11/14 02:06:17;;;;;;;71.20;42.92;;;5.60;99.90;;;;;;4982474;28;20527;-77
2022/11/14 02:08:43;;;;;;;75.38;44.33;;;5.60;99.90;;;;;;4990517;28;20042;-77
2022/11/14 02:11:10;;;;;;;74.80;45.20;;;5.60;99.90;;;;;;4983655;28;20041;-77
2022/11/14 02:13:37;;;;;;;76.30;45.83;;;5.60;99.90;;;;;;4946607;28;20031;-77
2022/11/14 02:16:03;;;;;;;71.85;44.17;;;5.60;99.90;;;;;;4986855;28;20335;-77
2022/11/14 02:18:28;;;;;;;80.13;46.33;;;5.60;99.90;;;;;;4975374;28;20053;-77
2022/11/14 02:20:54;;;;;;;79.03;47.13;;;5.60;99.90;;;;;;4957897;28;21268;-77
2022/11/14 02:23:31;;;;;;;78.22;47.22;;;5.60;99.90;;;;;;4989546;28;20573;-76
2022/11/14 02:25:57;;;;;;;82.45;47.53;;;5.60;99.90;;;;;;4958641;28;20223;-77
2022/11/14 02:28:22;;;;;;;79.53;46.50;;;5.60;99.90;;;;;;4982048;28;20042;-77
2022/11/14 02:30:48;;;;;;;76.88;46.17;;;5.60;99.90;;;;;;4953244;28;20085;-77
2022/11/14 02:33:14;;;;;;;76.40;46.67;;;5.60;99.90;;;;;;4971582;28;20042;-77
2022/11/14 02:35:40;;;;;;;81.55;47.00;;;5.60;99.90;;;;;;4991018;28;20503;-77
2022/11/14 02:38:06;;;;;;;83.57;48.00;;;5.60;99.90;;;;;;4959267;28;20034;-77
2022/11/14 02:40:32;;;;;;;83.03;47.13;;;5.60;99.90;;;;;;4959060;28;20074;-77
2022/11/14 02:42:58;;;;;;;80.93;47.67;;;5.60;99.90;;;;;;4958269;28;20128;-77
2022/11/14 02:45:23;;;;;;;83.85;48.63;;;5.60;99.90;;;;;;4951176;28;20073;-77
2022/11/14 02:47:49;;;;;;;80.75;45.83;;;5.60;99.90;;;;;;4991274;28;20034;-77
2022/11/14 02:50:15;;;;;;;81.32;48.13;;;5.50;99.90;;;;;;4990226;28;20493;-77
2022/11/14 02:52:41;;;;;;;79.70;47.38;;;5.50;99.90;;;;;;4987532;28;20046;-77
2022/11/14 02:55:07;;;;;;;85.80;49.88;;;5.50;99.90;;;;;;4983015;28;20076;-77
2022/11/14 02:57:32;;;;;;;86.60;48.10;;;5.50;99.90;;;;;;4990913;28;20046;-77
2022/11/14 02:59:58;;;;;;;83.43;47.13;;;5.40;99.90;;;;;;4990518;28;20045;-77
2022/11/14 03:02:23;;;;;;;85.32;48.60;;;5.40;99.90;;;;;;4965835;28;20070;-77
2022/11/14 03:04:49;;;;;;;85.75;49.63;;;5.40;99.90;;;;;;4974743;28;20401;-77
2022/11/14 03:07:15;;;;;;;86.78;50.35;;;5.40;99.90;;;;;;4989368;28;20547;-77
2022/11/14 03:09:40;;;;;;;84.63;50.03;;;5.40;99.90;;;;;;4982782;28;20027;-77
2022/11/14 03:12:06;;;;;;;88.00;50.28;;;5.40;99.90;;;;;;4990346;28;20042;-77
2022/11/14 03:14:32;;;;;;;86.15;48.60;;;5.40;99.90;;;;;;4986801;28;20117;-77
2022/11/14 03:16:57;;;;;;;86.65;50.00;;;5.40;99.90;;;;;;4974415;28;20266;-77
2022/11/14 03:19:23;;;;;;;85.95;49.75;;;5.40;99.90;;;;;;4957681;28;20030;-77
2022/11/14 03:21:48;;;;;;;87.63;48.33;;;5.40;99.90;;;;;;4958449;28;20085;-76
2022/11/14 03:24:14;;;;;;;92.03;50.95;;;5.40;99.90;;;;;;4989054;28;20057;-77
2022/11/14 03:26:40;;;;;;;93.57;51.85;;;5.40;99.90;;;;;;4986400;28;20471;-77
2022/11/14 03:29:05;;;;;;;95.13;52.70;;;5.40;99.90;;;;;;4962439;28;20519;-76
2022/11/14 03:31:31;;;;;;;91.25;51.28;;;5.40;99.90;;;;;;4958564;28;20081;-77
2022/11/14 03:33:56;;;;;;;95.60;52.22;;;5.40;99.90;;;;;;4953620;28;20031;-77
2022/11/14 03:36:22;;;;;;;95.00;52.40;;;5.40;99.90;;;;;;4949727;28;20070;-77
2022/11/14 03:38:48;;;;;;;90.82;51.85;;;5.40;99.90;;;;;;4984665;28;20089;-77
2022/11/14 03:41:13;;;;;;;92.03;51.92;;;5.30;99.90;;;;;;4971620;28;20096;-77
2022/11/14 03:43:39;;;;;;;87.68;50.72;;;5.40;99.90;;;;;;4989949;28;20038;-77
2022/11/14 03:46:04;;;;;;;88.78;50.40;;;5.40;99.90;;;;;;4990858;28;20038;-77
2022/11/14 03:48:30;;;;;;;94.20;52.92;;;5.30;99.90;;;;;;4958216;28;20519;-77
2022/11/14 03:50:56;;;;;;;91.72;51.85;;;5.30;99.90;;;;;;4988751;28;20065;-77
2022/11/14 03:53:22;;;;;;;96.13;53.85;;;5.30;99.90;;;;;;5010885;23;20069;-76
2022/11/14 03:55:49;;;;;;;92.47;52.08;;;5.30;99.90;;;;;;4980982;28;20035;-76
2022/11/14 03:58:14;;;;;;;90.60;52.40;;;5.20;99.90;;;;;;4954850;28;20097;-76
2022/11/14 04:00:40;;;;;;;89.72;52.28;;;5.20;99.90;;;;;;4971525;28;20093;-76
2022/11/14 04:03:05;;;;;;;95.82;52.55;;;5.20;99.90;;;;;;4996866;28;20117;-77
2022/11/14 04:05:31;;;;;;;97.00;53.25;;;5.20;99.90;;;;;;4977615;28;20089;-76
2022/11/14 04:07:57;;;;;;;97.00;55.03;;;5.20;99.90;;;;;;4960406;28;20125;-76
2022/11/14 04:10:22;;;;;;;94.85;53.97;;;5.20;99.90;;;;;;4984636;28;20565;-77
2022/11/14 04:12:53;;;;;;;91.43;53.58;;;5.20;99.90;;;;;;4993199;28;20093;-77
2022/11/14 04:15:19;;;;;;;92.45;53.90;;;5.20;99.90;;;;;;4995200;28;20042;-77
2022/11/14 04:17:45;;;;;;;97.47;54.55;;;5.20;99.90;;;;;;4985810;28;20034;-77
2022/11/14 04:20:13;;;;;;;95.95;54.38;;;5.20;99.90;;;;;;4977766;28;20053;-77
2022/11/14 04:22:39;;;;;;;98.07;53.92;;;5.20;99.90;;;;;;4966431;28;20125;-77
2022/11/14 04:25:06;;;;;;;99.00;54.95;;;5.20;99.90;;;;;;4961115;28;20038;-77
2022/11/14 04:27:31;;;;;;;108.47;54.90;;;5.20;99.90;;;;;;4960365;28;20042;-77
2022/11/14 04:29:57;;;;;;;101.47;55.08;;;5.20;99.90;;;;;;4965889;28;20045;-77
2022/11/14 04:32:22;;;;;;;98.85;55.38;;;5.20;99.90;;;;;;4975225;28;20043;-76
2022/11/14 04:34:48;;;;;;;95.32;52.13;;;5.20;99.90;;;;;;4992682;28;20133;-76
2022/11/14 04:37:14;;;;;;;96.28;53.63;;;5.20;99.90;;;;;;4980693;28;20101;-77
2022/11/14 04:39:39;;;;;;;96.15;53.80;;;5.20;99.90;;;;;;4961313;28;20045;-77
2022/11/14 04:42:05;;;;;;;98.53;54.22;;;5.20;99.90;;;;;;4964573;28;20031;-76
2022/11/14 04:44:31;;;;;;;94.05;53.42;;;5.10;99.90;;;;;;4979356;28;20053;-76
2022/11/14 04:46:56;;;;;;;92.97;54.42;;;5.20;99.90;;;;;;4976781;28;20041;-77
2022/11/14 04:49:22;;;;;;;89.85;52.45;;;5.20;99.90;;;;;;4960916;28;20121;-77
2022/11/14 04:51:48;;;;;;;93.13;52.88;;;5.20;99.90;;;;;;4960977;28;20042;-77
2022/11/14 04:54:13;;;;;;;90.97;53.05;;;5.20;99.90;;;;;;4984402;28;20069;-77
2022/11/14 04:56:39;;;;;;;94.40;53.38;;;5.20;99.90;;;;;;4956597;28;20097;-77
2022/11/14 04:59:04;;;;;;;91.97;52.20;;;5.20;99.90;;;;;;4976879;28;20046;-77
2022/11/14 05:01:30;;;;;;;98.28;55.10;;;5.20;99.90;;;;;;4977374;28;20204;-77
2022/11/14 05:03:56;;;;;;;90.40;51.83;;;5.20;99.90;;;;;;4978326;28;20050;-77
2022/11/14 05:06:21;;;;;;;96.40;54.63;;;5.20;99.90;;;;;;4961548;28;20548;-77
2022/11/14 05:08:47;;;;;;;90.30;54.08;;;5.20;99.90;;;;;;4976369;28;20046;-77
2022/11/14 05:11:18;;;;;;;92.10;53.70;;;5.20;99.90;;;;;;4992988;28;20038;-77
2022/11/14 05:13:44;;;;;;;93.50;53.33;;;5.20;99.90;;;;;;4979131;28;20496;-77
2022/11/14 05:16:10;;;;;;;90.75;55.30;;;5.20;99.90;;;;;;4979057;28;20027;-77
2022/11/14 05:18:36;;;;;;;96.35;54.60;;;5.30;99.90;;;;;;4972206;28;20121;-77
2022/11/14 05:21:02;;;;;;;91.80;54.42;;;5.20;99.90;;;;;;4996101;28;20121;-77
2022/11/14 05:23:28;;;;;;;94.70;55.08;;;5.20;99.90;;;;;;4976974;28;20038;-77
2022/11/14 05:26:11;;;;;;;92.18;54.60;;;5.20;99.90;;;;;;4993684;28;20053;-76
2022/11/14 05:28:37;;;;;;;95.22;55.85;;;5.20;99.90;;;;;;4968178;28;20043;-77
2022/11/14 05:31:16;;;;;;;95.10;54.88;;;5.20;99.90;;;;;;4975119;28;20378;-77
2022/11/14 05:33:43;;;;;;;95.30;55.33;;;5.20;99.90;;;;;;4955197;28;20535;-77
2022/11/14 05:36:14;;;;;;;92.03;53.97;;;5.20;99.90;;;;;;4952480;28;20034;-77
2022/11/14 05:38:40;;;;;;;94.18;55.22;;;5.20;99.90;;;;;;4955025;28;20035;-77
2022/11/14 05:41:13;;;;;;;95.57;54.35;;;5.20;99.90;;;;;;4980888;28;20444;-77
2022/11/14 05:43:39;;;;;;;;;;;5.30;99.90;;;;;;4976448;28;20042;-77
2022/11/14 05:46:07;;;;;;;97.22;55.08;;;5.20;99.90;;;;;;4973328;28;19924;-77
2022/11/14 05:48:33;;;;;;;92.40;54.22;;;5.30;99.90;;;;;;5007663;28;20128;-77
2022/11/14 05:51:00;;;;;;;94.22;53.95;;;5.20;99.90;;;;;;4966615;28;20062;-77
2022/11/14 05:53:27;;;;;;;90.95;52.42;;;5.20;99.90;;;;;;4968538;28;20123;-77
2022/11/14 05:55:54;;;;;;;91.47;54.38;;;5.30;99.90;;;;;;4984127;28;20149;-77
2022/11/14 05:58:20;;;;;;;92.55;54.22;;;5.30;99.90;;;;;;4991794;28;20046;-77
2022/11/14 06:00:46;;;;;;;90.32;54.75;;;5.30;99.90;;;;;;4984524;28;20484;-77
2022/11/14 06:03:13;;;;;;;89.72;53.55;;;5.30;99.90;;;;;;4958389;28;20396;-76
2022/11/14 06:05:39;;;;;;;89.57;54.28;;;5.30;99.90;;;;;;4979928;28;20038;-76
2022/11/14 06:08:05;;;;;;;90.43;53.33;;;5.30;99.90;;;;;;4974034;28;20472;-77
2022/11/14 06:10:33;;;;;;;91.95;53.35;;;5.30;99.90;;;;;;4998239;28;20146;-77
2022/11/14 06:12:58;;;;;;;88.65;53.55;;;5.30;99.90;;;;;;4969553;28;20457;-77
2022/11/14 06:15:25;;;;;;;84.35;51.67;;;5.30;99.90;;;;;;4973658;28;20043;-78
2022/11/14 06:17:54;;;;;;;88.88;52.75;;;5.30;99.90;;;;;;4962879;28;20104;-77
2022/11/14 06:20:20;;;;;;;89.78;53.15;;;5.30;99.90;;;;;;4993310;28;20054;-77
2022/11/14 06:22:46;;;;;;;93.75;53.47;;;5.30;99.90;;;;;;4972886;28;20481;-78
2022/11/14 06:25:11;;;;;;;90.82;52.30;;;5.30;99.90;;;;;;4992101;28;20037;-78
2022/11/14 06:27:37;;;;;;;93.20;54.00;;;5.30;99.90;;;;;;4998804;28;20046;-79
2022/11/14 06:30:03;;;;;;;89.20;53.97;;;5.30;99.90;;;;;;4962968;28;20492;-76
2022/11/14 06:32:28;;;;;;;91.05;53.75;;;5.30;99.90;;;;;;4967768;28;20069;-77
2022/11/14 06:34:54;;;;;;;92.63;55.78;;;5.30;99.90;;;;;;4992275;28;20096;-77
2022/11/14 06:37:20;;;;;;;92.88;52.53;;;5.30;99.90;;;;;;4980763;28;20045;-77
2022/11/14 06:39:45;;;;;;;89.85;52.88;;;5.20;99.90;;;;;;4998683;28;20038;-77
2022/11/14 06:42:11;;;;;;;86.60;52.28;;;5.20;99.90;;;;;;4990738;28;20448;-76
2022/11/14 06:44:36;;;;;;;89.35;52.58;;;5.20;99.90;;;;;;4986672;28;20048;-76
2022/11/14 06:47:02;;;;;;;87.68;53.25;;;5.20;99.90;;;;;;4970455;28;20042;-76
2022/11/14 06:49:27;;;;;;;88.90;52.60;;;5.10;99.90;;;;;;4974852;28;20042;-76
2022/11/14 06:51:54;;;;;;;89.22;51.90;;;5.10;99.90;;;;;;4957696;28;20081;-77
2022/11/14 06:54:19;;;;;;;88.82;52.75;;;5.10;99.90;;;;;;4974301;28;20440;-77
2022/11/14 06:56:45;;;;;;;91.13;53.75;;;5.10;99.90;;;;;;4969862;28;20027;-77
2022/11/14 06:59:11;;;;;;;91.88;51.97;;;5.10;99.90;;;;;;4988036;28;20042;-77
2022/11/14 07:01:36;;;;;;;94.53;55.85;;;5.10;99.90;;;;;;4973760;28;20143;-77
2022/11/14 07:04:02;;;;;;;89.68;51.80;;;5.10;99.90;;;;;;4959259;28;20069;-77
2022/11/14 07:06:29;;;;;;;93.45;53.75;;;5.10;99.90;;;;;;4992067;28;20050;-78
2022/11/14 07:08:56;;;;;;;93.38;52.03;;;5.00;99.90;;;;;;4985280;28;20042;-78
2022/11/14 07:11:25;;;;;;;90.80;52.20;;;5.00;99.90;;;;;;4982243;28;20043;-77
2022/11/14 07:13:53;;;;;;;93.82;52.83;;;5.00;99.90;;;;;;4990699;28;20044;-75
2022/11/14 07:16:22;;;;;;;92.68;52.95;;;4.90;99.90;;;;;;4976078;28;20388;-77
2022/11/14 07:18:47;;;;;;;89.95;51.60;;;4.90;99.90;;;;;;4986677;28;20523;-77
2022/11/14 07:21:13;;;;;;;90.68;50.97;;;4.80;99.90;;;;;;4982260;28;20042;-77
2022/11/14 07:23:40;;;;;;;93.07;51.65;;;4.80;99.90;;;;;;4971172;28;20034;-77
2022/11/14 07:26:08;;;;;;;92.55;53.20;;;4.80;99.90;;;;;;4939731;28;20035;-76
2022/11/14 07:28:35;;;;;;;93.55;51.90;;;4.80;99.90;;;;;;4939470;28;20042;-76
2022/11/14 07:31:06;;;;;;;91.13;51.45;;;4.80;99.90;;;;;;4971454;28;20528;-76
2022/11/14 07:33:32;;;;;;;97.25;52.67;;;4.70;99.90;;;;;;4955805;28;20501;-76
2022/11/14 07:35:57;;;;;;;93.88;52.05;;;4.70;99.90;;;;;;4971472;28;20129;-77
2022/11/14 07:38:23;;;;;;;96.40;51.38;;;4.70;99.90;;;;;;4972640;28;20039;-76
2022/11/14 07:40:56;;;;;;;93.00;51.40;;;4.70;99.90;;;;;;4976179;28;20101;-77
2022/11/14 07:43:22;;;;;;;89.80;52.65;;;4.70;99.90;;;;;;4975442;28;20043;-76
2022/11/14 07:45:48;;;;;;;94.40;52.95;;;4.70;99.90;;;;;;4975113;28;20442;-77
2022/11/14 07:48:14;;;;;;;84.25;49.00;;;4.70;99.90;;;;;;4942816;28;20050;-76
2022/11/14 07:50:39;;;;;;;85.88;49.58;;;4.70;99.90;;;;;;4942983;28;20408;-77
2022/11/14 07:53:06;;;;;;;88.18;49.70;;;4.70;99.90;;;;;;4980914;28;20101;-77
2022/11/14 07:55:33;;;;;;;84.47;49.20;;;4.80;99.90;;;;;;4991341;28;20078;-76
2022/11/14 07:57:59;;;;;;;84.10;47.13;;;4.70;99.90;;;;;;4991288;28;20113;-77
2022/11/14 08:00:25;;;;;;;82.95;47.60;;;4.80;99.90;;;;;;4974855;28;20043;-77
2022/11/14 08:02:50;;;;;;;83.88;47.90;;;4.80;99.90;;;;;;4991404;28;20429;-76
2022/11/14 08:05:17;;;;;;;86.85;46.95;;;4.80;99.90;;;;;;4974884;28;20035;-77
2022/11/14 08:07:43;;;;;;;81.28;48.30;;;4.80;99.90;;;;;;4958231;28;20045;-76
2022/11/14 08:10:10;;;;;;;87.30;49.90;;;4.80;99.90;;;;;;4959035;28;20097;-76
2022/11/14 08:12:38;;;;;;;82.30;46.60;;;4.80;99.90;;;;;;4991219;28;20412;-76
2022/11/14 08:15:06;;;;;;;82.47;47.88;;;4.90;99.90;;;;;;4990933;28;20050;-76
2022/11/14 08:17:31;;;;;;;77.40;45.97;;;4.90;99.90;;;;;;4958751;28;20053;-77
2022/11/14 08:19:57;;;;;;;79.35;47.55;;;4.90;99.90;;;;;;4990985;28;20034;-77
2022/11/14 08:22:23;;;;;;;76.65;44.85;;;4.90;99.90;;;;;;4958481;28;20038;-77
2022/11/14 08:24:48;;;;;;;74.18;44.92;;;5.00;99.90;;;;;;4960089;28;20050;-77
2022/11/14 08:27:14;;;;;;;75.05;45.00;;;5.00;99.90;;;;;;4990715;28;20073;-77
2022/11/14 08:29:39;;;;;;;76.28;44.97;;;5.10;99.90;;;;;;4958766;28;20039;-77
2022/11/14 08:32:05;;;;;;;75.40;44.00;;;5.10;99.90;;;;;;4959113;28;20081;-78
2022/11/14 08:34:31;;;;;;;73.50;45.70;;;5.10;99.90;;;;;;4974644;28;20066;-77
2022/11/14 08:36:57;;;;;;;73.13;46.00;;;5.20;99.90;;;;;;4974242;28;20035;-77
2022/11/14 08:39:23;;;;;;;72.10;44.08;;;5.20;99.90;;;;;;4958423;28;20043;-77
2022/11/14 08:41:48;;;;;;;72.45;44.42;;;5.20;99.90;;;;;;4990918;28;20065;-77
2022/11/14 08:44:14;;;;;;;71.90;45.13;;;5.30;99.90;;;;;;4991271;28;20113;-77
2022/11/14 08:46:40;;;;;;;66.18;43.75;;;5.30;99.90;;;;;;4990598;28;20129;-77
2022/11/14 08:49:05;;;;;;;68.70;43.53;;;5.40;99.90;;;;;;4957442;28;20043;-77
2022/11/14 08:51:31;;;;;;;68.50;44.15;;;5.40;99.90;;;;;;4990938;28;20035;-77
2022/11/14 08:53:56;;;;;;;67.40;42.95;;;5.40;99.90;;;;;;4958615;28;20173;-77
2022/11/14 08:56:22;;;;;;;71.70;43.58;;;5.40;99.90;;;;;;4957897;28;20486;-77
2022/11/14 08:58:48;;;;;;;66.25;41.42;;;5.50;99.90;;;;;;4974426;28;20132;-77
2022/11/14 09:01:13;;;;;;;63.97;41.70;;;5.50;99.90;;;;;;4958471;28;20042;-77
2022/11/14 09:03:39;;;;;;;67.30;41.90;;;5.60;99.90;;;;;;4990340;28;20042;-77
2022/11/14 09:06:05;;;;;;;62.25;41.50;;;5.60;99.90;;;;;;4958446;28;20494;-77
2022/11/14 09:08:31;;;;;;;65.63;41.70;;;5.60;99.90;;;;;;4989999;28;20130;-77
2022/11/14 09:11:01;;;;;;;63.63;40.75;;;5.70;99.90;;;;;;4957445;28;20074;-77
2022/11/14 09:13:27;;;;;;;61.78;39.25;;;5.70;99.90;;;;;;4989653;28;20043;-77
2022/11/14 09:15:52;;;;;;;60.35;40.47;;;5.70;99.90;;;;;;4973486;28;20043;-77
2022/11/14 09:18:18;;;;;;;62.53;40.97;;;5.80;99.90;;;;;;4973354;28;20080;-76
2022/11/14 09:20:44;;;;;;;61.55;39.67;;;5.80;99.90;;;;;;4989987;28;20097;-77
2022/11/14 09:23:10;;;;;;;57.63;38.92;;;5.90;99.90;;;;;;4958025;28;20045;-77
2022/11/14 09:25:36;;;;;;;56.03;39.42;;;5.90;99.90;;;;;;4973397;28;20089;-77
2022/11/14 09:28:08;;;;;;;57.15;39.85;;;6.00;99.90;;;;;;4957109;28;20043;-77
2022/11/14 09:30:35;;;;;;;;;;;6.00;99.90;;;;;;4974005;28;20039;-77
2022/11/14 09:33:02;;;;;;;55.90;37.63;;;6.10;99.90;;;;;;4973322;28;19925;-76
2022/11/14 09:35:29;;;;;;;51.67;36.67;;;6.20;99.90;;;;;;4990876;28;20058;-77
2022/11/14 09:38:09;;;;;;;50.38;35.28;;;6.40;99.90;;;;;;4958882;28;20053;-77
2022/11/14 09:41:01;;;;;;;54.20;36.40;;;6.50;99.90;;;;;;4989333;28;20046;-77
2022/11/14 09:43:38;;;;;;;52.47;35.70;;;6.70;99.90;;;;;;4989619;28;20137;-77
2022/11/14 09:46:10;;;;;;;43.97;32.22;;;6.80;99.90;;;;;;4990248;28;20050;-77
2022/11/14 09:48:36;;;;;;;;;;;6.80;99.90;;;;;;4957524;28;20038;-77
2022/11/14 09:51:14;;;;;;;44.38;32.30;;;6.80;99.90;;;;;;4972779;28;19967;-77
2022/11/14 09:53:50;;;;;;;45.55;32.42;;;6.90;99.90;;;;;;4964330;23;20118;-77
2022/11/14 09:56:22;;;;;;;44.60;31.73;;;6.90;99.90;;;;;;4956866;28;20101;-77
2022/11/14 09:58:48;;;;;;;40.00;30.10;;;6.90;99.90;;;;;;4956863;28;20046;-77
2022/11/14 10:01:31;;;;;;;38.97;30.17;;;7.00;99.90;;;;;;4956078;28;20043;-76
2022/11/14 10:04:12;;;;;;;41.53;31.35;;;7.00;99.90;;;;;;4972548;28;20050;-77
2022/11/14 10:06:44;;;;;;;42.10;30.15;;;7.10;99.90;;;;;;4956585;28;20046;-76
2022/11/14 10:09:10;;;;;;;38.63;28.85;;;7.10;99.90;;;;;;4972194;28;20039;-77
2022/11/14 10:12:08;;;;;;;37.30;28.80;;;7.20;99.90;;;;;;4956620;28;20059;-76
2022/11/14 10:14:49;;;;;;;39.75;29.15;;;7.30;99.90;;;;;;4932649;28;20050;-76
2022/11/14 10:17:46;;;;;;;36.85;27.45;;;7.30;99.90;;;;;;4956498;28;20034;-78
2022/11/14 10:20:29;;;;;;;37.22;28.05;;;7.40;99.90;;;;;;4957813;28;20089;-77
2022/11/14 10:23:13;;;;;;;38.35;27.75;;;7.40;99.90;;;;;;4956531;28;20042;-77
2022/11/14 10:25:53;;;;;;;38.00;27.67;;;7.50;99.90;;;;;;4956031;28;20109;-77
2022/11/14 10:28:18;;;;;;;37.08;28.45;;;7.50;99.90;;;;;;4955958;28;20039;-76
2022/11/14 10:31:04;;;;;;;38.00;28.73;;;7.60;99.90;;;;;;4956177;28;20061;-76
2022/11/14 10:33:40;;;;;;;35.15;27.70;;;7.60;99.90;;;;;;4956363;28;20042;-77
2022/11/14 10:36:19;;;;;;;35.10;26.58;;;7.70;99.90;;;;;;4956027;28;20074;-77
2022/11/14 10:38:53;;;;;;;34.50;26.40;;;7.80;99.90;;;;;;4955684;28;20050;-77
2022/11/14 10:41:21;;;;;;;37.00;26.88;;;7.80;99.90;;;;;;4955894;28;20053;-76
2022/11/14 10:43:49;;;;;;;35.30;25.83;;;7.90;99.90;;;;;;4956681;28;20051;-77
2022/11/14 10:46:24;;;;;;;35.45;27.65;;;8.00;99.90;;;;;;4971943;28;20074;-77
2022/11/14 10:48:50;;;;;;;32.92;26.40;;;8.00;99.90;;;;;;4955749;28;20043;-77
2022/11/14 10:51:28;;;;;;;34.92;26.02;;;8.00;99.90;;;;;;4957053;28;20045;-77
2022/11/14 10:54:02;;;;;;;33.22;26.10;;;8.10;99.90;;;;;;4954419;28;20152;-78
2022/11/14 10:56:28;;;;;;;32.97;25.73;;;8.10;99.90;;;;;;4952856;29;20039;-77
2022/11/14 10:58:54;;;;;;;33.88;26.27;;;8.10;99.90;;;;;;4953418;28;20050;-77
2022/11/14 11:01:38;;;;;;;32.67;25.88;;;8.10;99.90;;;;;;4953098;29;20043;-77
2022/11/14 11:04:12;;;;;;;32.20;24.65;;;8.10;99.90;;;;;;4952512;28;20055;-78
2022/11/14 11:06:38;;;;;;;31.42;25.27;;;8.10;99.90;;;;;;4953084;29;20050;-77
2022/11/14 11:11:58;;;;;;;32.55;24.98;;;8.20;99.90;;;;;;4952621;28;20098;-78
2022/11/14 11:14:24;;;;;;;32.88;25.58;;;8.20;99.90;;;;;;4956482;28;20039;-77
2022/11/14 11:17:14;;;;;;;35.17;25.30;;;8.30;99.90;;;;;;4972647;28;20047;-77
2022/11/14 11:19:41;;;;;;;28.30;23.98;;;8.40;99.90;;;;;;4956666;29;20417;-77
2022/11/14 11:22:27;;;;;;;34.72;25.10;;;8.50;99.90;;;;;;4956256;29;20051;-77
2022/11/14 11:24:53;;;;;;;31.50;25.17;;;8.60;99.90;;;;;;4940147;29;20047;-77
2022/11/14 11:27:23;;;;;;;32.45;24.63;;;8.80;99.90;;;;;;4955589;29;20047;-77
2022/11/14 11:30:04;;;;;;;30.38;24.05;;;8.90;99.90;;;;;;4955993;29;20047;-77
2022/11/14 11:32:29;;;;;;;29.70;24.63;;;9.20;99.90;;;;;;4956042;28;20097;-78
2022/11/14 11:34:59;;;;;;;28.88;23.38;;;9.40;99.90;;;;;;4956178;28;20039;-77
2022/11/14 11:37:29;;;;;;;30.70;23.45;;;9.60;99.90;;;;;;4956088;29;20035;-77
2022/11/14 11:39:57;;;;;;;32.17;24.58;;;9.80;99.90;;;;;;4955908;29;20043;-77
2022/11/14 11:42:33;;;;;;;28.13;23.05;;;9.80;99.90;;;;;;4956052;28;20047;-78
2022/11/14 11:45:02;;;;;;;29.52;22.85;;;9.90;99.90;;;;;;4939951;29;20043;-78
2022/11/14 11:47:33;;;;;;;29.73;23.73;;;10.00;99.90;;;;;;4955817;29;20564;-77
2022/11/14 11:50:01;;;;;;;29.55;23.67;;;9.90;99.90;;;;;;4956023;29;20453;-77
2022/11/14 11:52:26;;;;;;;26.98;23.30;;;9.90;99.90;;;;;;4957131;28;20047;-77
2022/11/14 11:55:04;;;;;;;27.35;22.58;;;9.90;99.90;;;;;;4959358;28;20058;-78
2022/11/14 11:57:37;;;;;;;27.63;22.50;;;10.00;99.90;;;;;;4958616;28;20049;-77
2022/11/14 12:00:19;;;;;;;28.02;22.42;;;9.90;99.90;;;;;;4975562;28;20047;-78
2022/11/14 12:02:46;;;;;;;27.98;22.42;;;9.90;99.90;;;;;;4958644;28;20074;-76
2022/11/14 12:05:43;;;;;;;27.40;22.40;;;9.90;99.90;;;;;;4958695;28;20117;-76
2022/11/14 12:08:16;;;;;;;29.00;22.95;;;10.00;99.90;;;;;;4959401;28;20519;-76
2022/11/14 12:10:43;;;;;;;29.05;22.98;;;9.90;99.90;;;;;;4958629;28;20146;-76
2022/11/14 12:13:47;;;;;;;27.23;22.73;;;10.00;99.90;;;;;;4974798;28;20043;-76
2022/11/14 12:16:45;;;;;;;29.90;24.73;;;10.00;99.90;;;;;;4958476;28;20046;-76
2022/11/14 12:19:38;;;;;;;28.50;22.90;;;10.00;99.90;;;;;;4958085;28;20050;-76
2022/11/14 12:22:16;;;;;;;29.48;21.80;;;10.00;99.90;;;;;;4942645;28;20133;-76
2022/11/14 12:25:03;;;;;;;27.73;23.27;;;10.00;99.90;;;;;;4957618;28;20129;-76
2022/11/14 12:27:59;;;;;;;26.95;22.52;;;9.90;99.90;;;;;;4958142;28;20051;-76
2022/11/14 12:30:26;;;;;;;26.13;21.60;;;10.00;99.90;;;;;;4942483;28;20039;-76
2022/11/14 12:33:00;;;;;;;24.45;20.63;;;9.90;99.90;;;;;;4958015;28;20089;-76
2022/11/14 12:35:33;;;;;;;24.90;21.02;;;10.00;99.90;;;;;;4974263;28;20070;-76
2022/11/14 12:38:11;;;;;;;24.10;20.63;;;9.90;99.90;;;;;;4957782;28;20046;-76
2022/11/14 12:40:40;;;;;;;23.10;19.30;;;9.90;99.90;;;;;;4958096;28;20054;-76
2022/11/14 12:43:28;;;;;;;22.42;19.63;;;9.90;99.90;;;;;;4957952;28;20043;-76
2022/11/14 12:45:58;;;;;;;24.55;19.88;;;9.90;99.90;;;;;;4958114;28;20039;-76
2022/11/14 12:48:24;;;;;;;22.90;19.92;;;9.80;99.90;;;;;;4957503;28;20042;-76